<?xml version="1.0" encoding="UTF-8" standalone="no" ?>
<gpx xmlns="http://www.topografix.com/GPX/1/1" xmlns:xsi="http://www.w3.org/2001/XMLSchema-instance" xsi:schemaLocation="http://www.topografix.com/GPX/1/1 http://www.topografix.com/GPX/1/1/gpx.xsd" version="1.1" creator="VisuGPX - https://www.visugpx.com">
  <metadata>
    <name>La roche des Arnauds</name>
    <desc><![CDATA[Circuit 3 au départ de la roche des arnauds]]></desc>
  </metadata>
  <trk>
    <name><![CDATA[OR-1828775--Roche-des-Arnauds (La):VTT VDG DEPART ROCHE-DES-ARNAUDS NUM3 Combe Noire ROUGE]]></name>
    <trkseg>
      <trkpt lat="44.56238" lon="5.95758">
        <ele>940</ele>
        <time>2017-10-10T11:24:52Z</time>
      </trkpt>
      <trkpt lat="44.56171" lon="5.95602">
        <ele>935</ele>
        <time>2017-10-10T11:26:52Z</time>
      </trkpt>
      <trkpt lat="44.56094" lon="5.95622">
        <ele>936</ele>
        <time>2017-10-10T11:28:52Z</time>
      </trkpt>
      <trkpt lat="44.55992" lon="5.95584">
        <ele>935</ele>
        <time>2017-10-10T11:30:52Z</time>
      </trkpt>
      <trkpt lat="44.55902" lon="5.9544">
        <ele>932</ele>
        <time>2017-10-10T11:32:52Z</time>
      </trkpt>
      <trkpt lat="44.55702" lon="5.95345">
        <ele>930</ele>
        <time>2017-10-10T11:34:52Z</time>
      </trkpt>
      <trkpt lat="44.55566" lon="5.95255">
        <ele>929</ele>
        <time>2017-10-10T11:36:52Z</time>
      </trkpt>
      <trkpt lat="44.55424" lon="5.95183">
        <ele>926</ele>
        <time>2017-10-10T11:38:52Z</time>
      </trkpt>
      <trkpt lat="44.54913" lon="5.95131">
        <ele>940</ele>
        <time>2017-10-10T11:40:52Z</time>
      </trkpt>
      <trkpt lat="44.54761" lon="5.95096">
        <ele>944</ele>
        <time>2017-10-10T11:42:52Z</time>
      </trkpt>
      <trkpt lat="44.54461" lon="5.95184">
        <ele>955</ele>
        <time>2017-10-10T11:44:52Z</time>
      </trkpt>
      <trkpt lat="44.54546" lon="5.95328">
        <ele>954</ele>
        <time>2017-10-10T11:46:52Z</time>
      </trkpt>
      <trkpt lat="44.54539" lon="5.95415">
        <ele>954</ele>
        <time>2017-10-10T11:48:52Z</time>
      </trkpt>
      <trkpt lat="44.54486" lon="5.95525">
        <ele>952</ele>
        <time>2017-10-10T11:50:52Z</time>
      </trkpt>
      <trkpt lat="44.54445" lon="5.95667">
        <ele>954</ele>
        <time>2017-10-10T11:52:52Z</time>
      </trkpt>
      <trkpt lat="44.54482" lon="5.95764">
        <ele>950</ele>
        <time>2017-10-10T11:54:52Z</time>
      </trkpt>
      <trkpt lat="44.54451" lon="5.96039">
        <ele>957</ele>
        <time>2017-10-10T11:56:52Z</time>
      </trkpt>
      <trkpt lat="44.54362" lon="5.96285">
        <ele>965</ele>
        <time>2017-10-10T11:58:52Z</time>
      </trkpt>
      <trkpt lat="44.54257" lon="5.96454">
        <ele>973</ele>
        <time>2017-10-10T12:00:52Z</time>
      </trkpt>
      <trkpt lat="44.54023" lon="5.96446">
        <ele>989</ele>
        <time>2017-10-10T12:02:52Z</time>
      </trkpt>
      <trkpt lat="44.53939" lon="5.96415">
        <ele>996</ele>
        <time>2017-10-10T12:04:52Z</time>
      </trkpt>
      <trkpt lat="44.53864" lon="5.96366">
        <ele>1002</ele>
        <time>2017-10-10T12:06:52Z</time>
      </trkpt>
      <trkpt lat="44.53804" lon="5.964">
        <ele>1008</ele>
        <time>2017-10-10T12:08:52Z</time>
      </trkpt>
      <trkpt lat="44.5381" lon="5.96482">
        <ele>1005</ele>
        <time>2017-10-10T12:10:52Z</time>
      </trkpt>
      <trkpt lat="44.53967" lon="5.96927">
        <ele>1001</ele>
        <time>2017-10-10T12:12:52Z</time>
      </trkpt>
      <trkpt lat="44.5398" lon="5.97217">
        <ele>1015</ele>
        <time>2017-10-10T12:14:52Z</time>
      </trkpt>
      <trkpt lat="44.53872" lon="5.97348">
        <ele>1016</ele>
        <time>2017-10-10T12:16:52Z</time>
      </trkpt>
      <trkpt lat="44.53845" lon="5.97466">
        <ele>1017</ele>
        <time>2017-10-10T12:18:52Z</time>
      </trkpt>
      <trkpt lat="44.53787" lon="5.97607">
        <ele>1028</ele>
        <time>2017-10-10T12:20:52Z</time>
      </trkpt>
      <trkpt lat="44.5355" lon="5.97831">
        <ele>1051</ele>
        <time>2017-10-10T12:22:52Z</time>
      </trkpt>
      <trkpt lat="44.53402" lon="5.97803">
        <ele>1056</ele>
        <time>2017-10-10T12:24:52Z</time>
      </trkpt>
      <trkpt lat="44.53366" lon="5.97813">
        <ele>1056</ele>
        <time>2017-10-10T12:26:52Z</time>
      </trkpt>
      <trkpt lat="44.53228" lon="5.98018">
        <ele>1070</ele>
        <time>2017-10-10T12:28:52Z</time>
      </trkpt>
      <trkpt lat="44.53182" lon="5.98131">
        <ele>1073</ele>
        <time>2017-10-10T12:30:52Z</time>
      </trkpt>
      <trkpt lat="44.53145" lon="5.98088">
        <ele>1076</ele>
        <time>2017-10-10T12:32:52Z</time>
      </trkpt>
      <trkpt lat="44.53116" lon="5.98083">
        <ele>1080</ele>
        <time>2017-10-10T12:34:52Z</time>
      </trkpt>
      <trkpt lat="44.53104" lon="5.98051">
        <ele>1082</ele>
        <time>2017-10-10T12:36:52Z</time>
      </trkpt>
      <trkpt lat="44.53065" lon="5.98073">
        <ele>1088</ele>
        <time>2017-10-10T12:38:52Z</time>
      </trkpt>
      <trkpt lat="44.53048" lon="5.98035">
        <ele>1094</ele>
        <time>2017-10-10T12:40:52Z</time>
      </trkpt>
      <trkpt lat="44.52979" lon="5.98065">
        <ele>1104</ele>
        <time>2017-10-10T12:42:52Z</time>
      </trkpt>
      <trkpt lat="44.52948" lon="5.98063">
        <ele>1108</ele>
        <time>2017-10-10T12:44:52Z</time>
      </trkpt>
      <trkpt lat="44.52879" lon="5.97964">
        <ele>1121</ele>
        <time>2017-10-10T12:46:52Z</time>
      </trkpt>
      <trkpt lat="44.52833" lon="5.97926">
        <ele>1125</ele>
        <time>2017-10-10T12:48:52Z</time>
      </trkpt>
      <trkpt lat="44.52777" lon="5.97919">
        <ele>1137</ele>
        <time>2017-10-10T12:50:52Z</time>
      </trkpt>
      <trkpt lat="44.52773" lon="5.97903">
        <ele>1137</ele>
        <time>2017-10-10T12:52:52Z</time>
      </trkpt>
      <trkpt lat="44.52705" lon="5.97861">
        <ele>1151</ele>
        <time>2017-10-10T12:54:52Z</time>
      </trkpt>
      <trkpt lat="44.52597" lon="5.97854">
        <ele>1175</ele>
        <time>2017-10-10T12:56:52Z</time>
      </trkpt>
      <trkpt lat="44.52493" lon="5.97794">
        <ele>1205</ele>
        <time>2017-10-10T12:58:52Z</time>
      </trkpt>
      <trkpt lat="44.5244" lon="5.97825">
        <ele>1216</ele>
        <time>2017-10-10T13:00:52Z</time>
      </trkpt>
      <trkpt lat="44.52402" lon="5.97892">
        <ele>1210</ele>
        <time>2017-10-10T13:02:52Z</time>
      </trkpt>
      <trkpt lat="44.52353" lon="5.97876">
        <ele>1224</ele>
        <time>2017-10-10T13:04:52Z</time>
      </trkpt>
      <trkpt lat="44.52328" lon="5.97887">
        <ele>1227</ele>
        <time>2017-10-10T13:06:52Z</time>
      </trkpt>
      <trkpt lat="44.52268" lon="5.97864">
        <ele>1243</ele>
        <time>2017-10-10T13:08:52Z</time>
      </trkpt>
      <trkpt lat="44.52221" lon="5.97858">
        <ele>1251</ele>
        <time>2017-10-10T13:10:52Z</time>
      </trkpt>
      <trkpt lat="44.52251" lon="5.9776">
        <ele>1264</ele>
        <time>2017-10-10T13:12:52Z</time>
      </trkpt>
      <trkpt lat="44.52327" lon="5.97657">
        <ele>1255</ele>
        <time>2017-10-10T13:14:52Z</time>
      </trkpt>
      <trkpt lat="44.52335" lon="5.97551">
        <ele>1256</ele>
        <time>2017-10-10T13:16:52Z</time>
      </trkpt>
      <trkpt lat="44.52482" lon="5.97315">
        <ele>1235</ele>
        <time>2017-10-10T13:18:52Z</time>
      </trkpt>
      <trkpt lat="44.52531" lon="5.97202">
        <ele>1236</ele>
        <time>2017-10-10T13:20:52Z</time>
      </trkpt>
      <trkpt lat="44.52595" lon="5.97093">
        <ele>1223</ele>
        <time>2017-10-10T13:22:52Z</time>
      </trkpt>
      <trkpt lat="44.52691" lon="5.96986">
        <ele>1198</ele>
        <time>2017-10-10T13:24:52Z</time>
      </trkpt>
      <trkpt lat="44.52784" lon="5.96907">
        <ele>1191</ele>
        <time>2017-10-10T13:26:52Z</time>
      </trkpt>
      <trkpt lat="44.52821" lon="5.96934">
        <ele>1183</ele>
        <time>2017-10-10T13:28:52Z</time>
      </trkpt>
      <trkpt lat="44.52962" lon="5.96887">
        <ele>1173</ele>
        <time>2017-10-10T13:30:52Z</time>
      </trkpt>
      <trkpt lat="44.53018" lon="5.96831">
        <ele>1167</ele>
        <time>2017-10-10T13:32:52Z</time>
      </trkpt>
      <trkpt lat="44.53056" lon="5.96773">
        <ele>1166</ele>
        <time>2017-10-10T13:34:52Z</time>
      </trkpt>
      <trkpt lat="44.53109" lon="5.96789">
        <ele>1157</ele>
        <time>2017-10-10T13:36:52Z</time>
      </trkpt>
      <trkpt lat="44.53193" lon="5.96785">
        <ele>1146</ele>
        <time>2017-10-10T13:38:52Z</time>
      </trkpt>
      <trkpt lat="44.53254" lon="5.96827">
        <ele>1133</ele>
        <time>2017-10-10T13:40:52Z</time>
      </trkpt>
      <trkpt lat="44.53278" lon="5.9686">
        <ele>1123</ele>
        <time>2017-10-10T13:42:52Z</time>
      </trkpt>
      <trkpt lat="44.53258" lon="5.96985">
        <ele>1116</ele>
        <time>2017-10-10T13:44:52Z</time>
      </trkpt>
      <trkpt lat="44.53286" lon="5.96955">
        <ele>1112</ele>
        <time>2017-10-10T13:46:52Z</time>
      </trkpt>
      <trkpt lat="44.5331" lon="5.96909">
        <ele>1109</ele>
        <time>2017-10-10T13:48:52Z</time>
      </trkpt>
      <trkpt lat="44.53318" lon="5.9674">
        <ele>1111</ele>
        <time>2017-10-10T13:50:52Z</time>
      </trkpt>
      <trkpt lat="44.53386" lon="5.96644">
        <ele>1089</ele>
        <time>2017-10-10T13:52:52Z</time>
      </trkpt>
      <trkpt lat="44.53456" lon="5.96592">
        <ele>1070</ele>
        <time>2017-10-10T13:54:52Z</time>
      </trkpt>
      <trkpt lat="44.53468" lon="5.96687">
        <ele>1063</ele>
        <time>2017-10-10T13:56:52Z</time>
      </trkpt>
      <trkpt lat="44.53465" lon="5.96724">
        <ele>1064</ele>
        <time>2017-10-10T13:58:52Z</time>
      </trkpt>
      <trkpt lat="44.53549" lon="5.96701">
        <ele>1045</ele>
        <time>2017-10-10T14:00:52Z</time>
      </trkpt>
      <trkpt lat="44.53566" lon="5.96646">
        <ele>1042</ele>
        <time>2017-10-10T14:02:52Z</time>
      </trkpt>
      <trkpt lat="44.53599" lon="5.96683">
        <ele>1034</ele>
        <time>2017-10-10T14:04:52Z</time>
      </trkpt>
      <trkpt lat="44.53608" lon="5.9668">
        <ele>1031</ele>
        <time>2017-10-10T14:06:52Z</time>
      </trkpt>
      <trkpt lat="44.53586" lon="5.96594">
        <ele>1037</ele>
        <time>2017-10-10T14:08:52Z</time>
      </trkpt>
      <trkpt lat="44.53686" lon="5.96515">
        <ele>1023</ele>
        <time>2017-10-10T14:10:52Z</time>
      </trkpt>
      <trkpt lat="44.53717" lon="5.96382">
        <ele>1019</ele>
        <time>2017-10-10T14:12:52Z</time>
      </trkpt>
      <trkpt lat="44.53738" lon="5.96358">
        <ele>1016</ele>
        <time>2017-10-10T14:14:52Z</time>
      </trkpt>
      <trkpt lat="44.53784" lon="5.96342">
        <ele>1011</ele>
        <time>2017-10-10T14:16:52Z</time>
      </trkpt>
      <trkpt lat="44.53764" lon="5.96319">
        <ele>1014</ele>
        <time>2017-10-10T14:18:52Z</time>
      </trkpt>
      <trkpt lat="44.53647" lon="5.96318">
        <ele>1027</ele>
        <time>2017-10-10T14:20:52Z</time>
      </trkpt>
      <trkpt lat="44.53642" lon="5.96261">
        <ele>1030</ele>
        <time>2017-10-10T14:22:52Z</time>
      </trkpt>
      <trkpt lat="44.53648" lon="5.96211">
        <ele>1039</ele>
        <time>2017-10-10T14:24:52Z</time>
      </trkpt>
      <trkpt lat="44.53709" lon="5.96148">
        <ele>1041</ele>
        <time>2017-10-10T14:26:52Z</time>
      </trkpt>
      <trkpt lat="44.53776" lon="5.95942">
        <ele>1053</ele>
        <time>2017-10-10T14:28:52Z</time>
      </trkpt>
      <trkpt lat="44.5382" lon="5.9586">
        <ele>1050</ele>
        <time>2017-10-10T14:30:52Z</time>
      </trkpt>
      <trkpt lat="44.53841" lon="5.95767">
        <ele>1047</ele>
        <time>2017-10-10T14:32:52Z</time>
      </trkpt>
      <trkpt lat="44.53842" lon="5.9565">
        <ele>1041</ele>
        <time>2017-10-10T14:34:52Z</time>
      </trkpt>
      <trkpt lat="44.53831" lon="5.95502">
        <ele>1035</ele>
        <time>2017-10-10T14:36:52Z</time>
      </trkpt>
      <trkpt lat="44.53833" lon="5.95448">
        <ele>1030</ele>
        <time>2017-10-10T14:38:52Z</time>
      </trkpt>
      <trkpt lat="44.53897" lon="5.95424">
        <ele>1020</ele>
        <time>2017-10-10T14:40:52Z</time>
      </trkpt>
      <trkpt lat="44.53892" lon="5.9537">
        <ele>1018</ele>
        <time>2017-10-10T14:42:52Z</time>
      </trkpt>
      <trkpt lat="44.53877" lon="5.95294">
        <ele>1013</ele>
        <time>2017-10-10T14:44:52Z</time>
      </trkpt>
      <trkpt lat="44.53825" lon="5.95291">
        <ele>1020</ele>
        <time>2017-10-10T14:46:52Z</time>
      </trkpt>
      <trkpt lat="44.53822" lon="5.95253">
        <ele>1020</ele>
        <time>2017-10-10T14:48:52Z</time>
      </trkpt>
      <trkpt lat="44.53864" lon="5.95211">
        <ele>1010</ele>
        <time>2017-10-10T14:50:52Z</time>
      </trkpt>
      <trkpt lat="44.53866" lon="5.95148">
        <ele>1009</ele>
        <time>2017-10-10T14:52:52Z</time>
      </trkpt>
      <trkpt lat="44.53858" lon="5.95113">
        <ele>1011</ele>
        <time>2017-10-10T14:54:52Z</time>
      </trkpt>
      <trkpt lat="44.53863" lon="5.95088">
        <ele>1011</ele>
        <time>2017-10-10T14:56:52Z</time>
      </trkpt>
      <trkpt lat="44.53947" lon="5.95062">
        <ele>1011</ele>
        <time>2017-10-10T14:58:52Z</time>
      </trkpt>
      <trkpt lat="44.54017" lon="5.94995">
        <ele>1021</ele>
        <time>2017-10-10T15:00:52Z</time>
      </trkpt>
      <trkpt lat="44.54112" lon="5.94922">
        <ele>1019</ele>
        <time>2017-10-10T15:02:52Z</time>
      </trkpt>
      <trkpt lat="44.54137" lon="5.94823">
        <ele>1025</ele>
        <time>2017-10-10T15:04:52Z</time>
      </trkpt>
      <trkpt lat="44.54181" lon="5.94738">
        <ele>1027</ele>
        <time>2017-10-10T15:06:52Z</time>
      </trkpt>
      <trkpt lat="44.54444" lon="5.94452">
        <ele>1043</ele>
        <time>2017-10-10T15:08:52Z</time>
      </trkpt>
      <trkpt lat="44.54497" lon="5.94374">
        <ele>1051</ele>
        <time>2017-10-10T15:10:52Z</time>
      </trkpt>
      <trkpt lat="44.54641" lon="5.94358">
        <ele>1053</ele>
        <time>2017-10-10T15:12:52Z</time>
      </trkpt>
      <trkpt lat="44.54692" lon="5.94317">
        <ele>1059</ele>
        <time>2017-10-10T15:14:52Z</time>
      </trkpt>
      <trkpt lat="44.54729" lon="5.94213">
        <ele>1071</ele>
        <time>2017-10-10T15:16:52Z</time>
      </trkpt>
      <trkpt lat="44.5474" lon="5.94144">
        <ele>1083</ele>
        <time>2017-10-10T15:18:52Z</time>
      </trkpt>
      <trkpt lat="44.54783" lon="5.94024">
        <ele>1099</ele>
        <time>2017-10-10T15:20:52Z</time>
      </trkpt>
      <trkpt lat="44.54868" lon="5.93822">
        <ele>1119</ele>
        <time>2017-10-10T15:22:52Z</time>
      </trkpt>
      <trkpt lat="44.54893" lon="5.93745">
        <ele>1132</ele>
        <time>2017-10-10T15:24:52Z</time>
      </trkpt>
      <trkpt lat="44.54942" lon="5.93694">
        <ele>1125</ele>
        <time>2017-10-10T15:26:52Z</time>
      </trkpt>
      <trkpt lat="44.54934" lon="5.93599">
        <ele>1148</ele>
        <time>2017-10-10T15:28:52Z</time>
      </trkpt>
      <trkpt lat="44.54952" lon="5.93538">
        <ele>1150</ele>
        <time>2017-10-10T15:30:52Z</time>
      </trkpt>
      <trkpt lat="44.54926" lon="5.93419">
        <ele>1171</ele>
        <time>2017-10-10T15:32:52Z</time>
      </trkpt>
      <trkpt lat="44.54968" lon="5.93381">
        <ele>1165</ele>
        <time>2017-10-10T15:34:52Z</time>
      </trkpt>
      <trkpt lat="44.55016" lon="5.93362">
        <ele>1154</ele>
        <time>2017-10-10T15:36:52Z</time>
      </trkpt>
      <trkpt lat="44.55021" lon="5.93268">
        <ele>1170</ele>
        <time>2017-10-10T15:38:52Z</time>
      </trkpt>
      <trkpt lat="44.55045" lon="5.93147">
        <ele>1179</ele>
        <time>2017-10-10T15:40:52Z</time>
      </trkpt>
      <trkpt lat="44.55078" lon="5.93102">
        <ele>1166</ele>
        <time>2017-10-10T15:42:52Z</time>
      </trkpt>
      <trkpt lat="44.55061" lon="5.93019">
        <ele>1177</ele>
        <time>2017-10-10T15:44:52Z</time>
      </trkpt>
      <trkpt lat="44.55068" lon="5.92938">
        <ele>1169</ele>
        <time>2017-10-10T15:46:52Z</time>
      </trkpt>
      <trkpt lat="44.55033" lon="5.92847">
        <ele>1188</ele>
        <time>2017-10-10T15:48:52Z</time>
      </trkpt>
      <trkpt lat="44.55056" lon="5.92761">
        <ele>1183</ele>
        <time>2017-10-10T15:50:52Z</time>
      </trkpt>
      <trkpt lat="44.55096" lon="5.92703">
        <ele>1173</ele>
        <time>2017-10-10T15:52:52Z</time>
      </trkpt>
      <trkpt lat="44.55081" lon="5.92614">
        <ele>1179</ele>
        <time>2017-10-10T15:54:52Z</time>
      </trkpt>
      <trkpt lat="44.55089" lon="5.92514">
        <ele>1152</ele>
        <time>2017-10-10T15:56:52Z</time>
      </trkpt>
      <trkpt lat="44.55157" lon="5.9249">
        <ele>1137</ele>
        <time>2017-10-10T15:58:52Z</time>
      </trkpt>
      <trkpt lat="44.55151" lon="5.92461">
        <ele>1128</ele>
        <time>2017-10-10T16:00:52Z</time>
      </trkpt>
      <trkpt lat="44.55074" lon="5.92409">
        <ele>1127</ele>
        <time>2017-10-10T16:02:52Z</time>
      </trkpt>
      <trkpt lat="44.55069" lon="5.92355">
        <ele>1114</ele>
        <time>2017-10-10T16:04:52Z</time>
      </trkpt>
      <trkpt lat="44.55095" lon="5.92234">
        <ele>1082</ele>
        <time>2017-10-10T16:06:52Z</time>
      </trkpt>
      <trkpt lat="44.55308" lon="5.92286">
        <ele>1032</ele>
        <time>2017-10-10T16:08:52Z</time>
      </trkpt>
      <trkpt lat="44.55404" lon="5.92292">
        <ele>992</ele>
        <time>2017-10-10T16:10:52Z</time>
      </trkpt>
      <trkpt lat="44.55514" lon="5.9257">
        <ele>932</ele>
        <time>2017-10-10T16:12:52Z</time>
      </trkpt>
      <trkpt lat="44.555" lon="5.92676">
        <ele>931</ele>
        <time>2017-10-10T16:14:52Z</time>
      </trkpt>
      <trkpt lat="44.55567" lon="5.92765">
        <ele>913</ele>
        <time>2017-10-10T16:16:52Z</time>
      </trkpt>
      <trkpt lat="44.55567" lon="5.92875">
        <ele>911</ele>
        <time>2017-10-10T16:18:52Z</time>
      </trkpt>
      <trkpt lat="44.55502" lon="5.93003">
        <ele>916</ele>
        <time>2017-10-10T16:20:52Z</time>
      </trkpt>
      <trkpt lat="44.5548" lon="5.93084">
        <ele>921</ele>
        <time>2017-10-10T16:22:52Z</time>
      </trkpt>
      <trkpt lat="44.55472" lon="5.93165">
        <ele>920</ele>
        <time>2017-10-10T16:24:52Z</time>
      </trkpt>
      <trkpt lat="44.55452" lon="5.93233">
        <ele>925</ele>
        <time>2017-10-10T16:26:52Z</time>
      </trkpt>
      <trkpt lat="44.55465" lon="5.93322">
        <ele>919</ele>
        <time>2017-10-10T16:28:52Z</time>
      </trkpt>
      <trkpt lat="44.55436" lon="5.9338">
        <ele>921</ele>
        <time>2017-10-10T16:30:52Z</time>
      </trkpt>
      <trkpt lat="44.55418" lon="5.9346">
        <ele>918</ele>
        <time>2017-10-10T16:32:52Z</time>
      </trkpt>
      <trkpt lat="44.5543" lon="5.93556">
        <ele>914</ele>
        <time>2017-10-10T16:34:52Z</time>
      </trkpt>
      <trkpt lat="44.55305" lon="5.93881">
        <ele>921</ele>
        <time>2017-10-10T16:36:52Z</time>
      </trkpt>
      <trkpt lat="44.55266" lon="5.94326">
        <ele>922</ele>
        <time>2017-10-10T16:38:52Z</time>
      </trkpt>
      <trkpt lat="44.55286" lon="5.94528">
        <ele>927</ele>
        <time>2017-10-10T16:40:52Z</time>
      </trkpt>
      <trkpt lat="44.55231" lon="5.94629">
        <ele>929</ele>
        <time>2017-10-10T16:42:52Z</time>
      </trkpt>
      <trkpt lat="44.55206" lon="5.94709">
        <ele>928</ele>
        <time>2017-10-10T16:44:52Z</time>
      </trkpt>
      <trkpt lat="44.55198" lon="5.94797">
        <ele>929</ele>
        <time>2017-10-10T16:46:52Z</time>
      </trkpt>
      <trkpt lat="44.55168" lon="5.94899">
        <ele>930</ele>
        <time>2017-10-10T16:48:52Z</time>
      </trkpt>
      <trkpt lat="44.55113" lon="5.95128">
        <ele>931</ele>
        <time>2017-10-10T16:50:52Z</time>
      </trkpt>
      <trkpt lat="44.55434" lon="5.95158">
        <ele>926</ele>
        <time>2017-10-10T16:52:52Z</time>
      </trkpt>
      <trkpt lat="44.55911" lon="5.95428">
        <ele>932</ele>
        <time>2017-10-10T16:54:52Z</time>
      </trkpt>
      <trkpt lat="44.56014" lon="5.95671">
        <ele>935</ele>
        <time>2017-10-10T16:56:52Z</time>
      </trkpt>
      <trkpt lat="44.56164" lon="5.95608">
        <ele>936</ele>
        <time>2017-10-10T16:58:52Z</time>
      </trkpt>
      <trkpt lat="44.56223" lon="5.9575">
        <ele>940</ele>
        <time>2017-10-10T17:00:52Z</time>
      </trkpt>
    </trkseg>
  </trk>
</gpx>